createdAt,value
2023-03-21T00:01:52.387Z,5.28
2023-03-21T00:04:20.277Z,7.32
2023-03-21T00:06:48.006Z,3.72
2023-03-21T00:09:17.277Z,5.20
2023-03-21T00:11:45.175Z,4.55
2023-03-21T00:14:14.414Z,4.28
2023-03-21T00:16:45.792Z,4.10
2023-03-21T00:19:14.480Z,6.20
2023-03-21T00:22:05.973Z,6.35
2023-03-21T00:24:32.298Z,5.47
2023-03-21T00:27:21.946Z,6.35
2023-03-21T00:29:49.368Z,5.40
2023-03-21T00:32:17.161Z,4.82
2023-03-21T00:34:59.646Z,4.88
2023-03-21T00:37:28.276Z,4.13
2023-03-21T00:39:57.466Z,7.00
2023-03-21T00:42:26.334Z,9.52
2023-03-21T00:44:54.091Z,8.38
2023-03-21T00:47:24.104Z,10.40
2023-03-21T00:49:53.157Z,12.20
2023-03-21T00:52:34.195Z,8.90
2023-03-21T00:55:09.108Z,4.90
2023-03-21T00:57:39.534Z,7.57
2023-03-21T01:00:09.967Z,8.30
2023-03-21T01:02:37.981Z,7.60
2023-03-21T01:05:06.542Z,7.57
2023-03-21T01:07:34.417Z,10.70
2023-03-21T01:10:02.131Z,8.02
2023-03-21T01:12:31.317Z,3.85
2023-03-21T01:14:59.046Z,6.82
2023-03-21T01:17:26.782Z,7.05
2023-03-21T01:19:55.440Z,5.07
2023-03-21T01:22:24.349Z,5.88
2023-03-21T01:24:58.572Z,5.05
2023-03-21T01:27:28.526Z,7.40
2023-03-21T01:29:58.663Z,6.30
2023-03-21T01:32:26.594Z,6.38
2023-03-21T01:34:54.499Z,6.53
2023-03-21T01:37:22.658Z,5.82
2023-03-21T01:39:50.421Z,8.18
2023-03-21T01:42:18.253Z,6.10
2023-03-21T01:44:59.226Z,7.72
2023-03-21T01:47:27.707Z,6.10
2023-03-21T01:49:57.929Z,6.00
2023-03-21T01:52:37.038Z,6.88
2023-03-21T01:55:11.590Z,4.53
2023-03-21T01:57:58.154Z,8.07
2023-03-21T02:00:34.428Z,9.45
2023-03-21T02:03:20.946Z,6.63
2023-03-21T02:05:57.430Z,9.00
2023-03-21T02:08:38.421Z,6.70
2023-03-21T02:11:08.136Z,4.57
2023-03-21T02:13:36.625Z,6.47
2023-03-21T02:16:13.037Z,7.25
2023-03-21T02:18:48.925Z,8.77
2023-03-21T02:21:52.548Z,12.93
2023-03-21T02:25:01.399Z,8.43
2023-03-21T02:27:36.005Z,8.95
2023-03-21T02:30:51.287Z,5.85
2023-03-21T02:34:07.357Z,5.80
2023-03-21T02:36:49.613Z,7.38
2023-03-21T02:39:26.334Z,9.60
2023-03-21T02:42:03.334Z,7.90
2023-03-21T02:44:36.265Z,10.70
2023-03-21T02:47:10.325Z,12.63
2023-03-21T02:49:44.777Z,6.82
2023-03-21T02:52:28.326Z,9.90
2023-03-21T02:55:05.646Z,8.80
2023-03-21T02:57:42.562Z,8.93
2023-03-21T03:00:17.981Z,6.22
2023-03-21T03:02:47.560Z,6.88
2023-03-21T03:05:22.217Z,8.20
2023-03-21T03:08:11.828Z,6.35
2023-03-21T03:10:48.344Z,8.48
2023-03-21T03:13:34.389Z,13.40
2023-03-21T03:16:13.501Z,10.65
2023-03-21T03:18:49.155Z,6.32
2023-03-21T03:21:22.809Z,7.88
2023-03-21T03:23:56.881Z,7.10
2023-03-21T03:26:29.903Z,7.70
2023-03-21T03:29:01.737Z,8.20
2023-03-21T03:31:34.840Z,8.35
2023-03-21T03:34:08.257Z,9.10
2023-03-21T03:36:41.400Z,7.15
2023-03-21T03:39:13.157Z,11.10
2023-03-21T03:42:12.643Z,9.57
2023-03-21T03:44:34.919Z,9.30
2023-03-21T03:47:06.288Z,9.27
2023-03-21T03:49:40.461Z,10.25
2023-03-21T03:52:14.626Z,8.48
2023-03-21T03:54:46.024Z,9.35
2023-03-21T03:57:14.492Z,7.00
2023-03-21T03:59:44.386Z,10.50
2023-03-21T04:02:12.318Z,8.10
2023-03-21T04:04:41.782Z,9.20
2023-03-21T04:07:09.578Z,8.98
2023-03-21T04:09:44.219Z,8.70
2023-03-21T04:12:14.012Z,9.33
2023-03-21T04:14:47.235Z,7.55
2023-03-21T04:17:16.122Z,9.88
2023-03-21T04:19:45.272Z,11.55
2023-03-21T04:22:13.180Z,10.05
2023-03-21T04:24:41.253Z,7.15
2023-03-21T04:27:09.083Z,6.95
2023-03-21T04:29:38.156Z,7.15
2023-03-21T04:32:16.087Z,8.25
2023-03-21T04:34:50.048Z,10.95
2023-03-21T04:37:18.932Z,9.20
2023-03-21T04:39:47.643Z,13.90
2023-03-21T04:42:16.052Z,11.85
2023-03-21T04:44:45.220Z,12.00
2023-03-21T04:47:15.899Z,7.50
2023-03-21T04:49:43.684Z,9.40
2023-03-21T04:52:11.425Z,10.38
2023-03-21T04:54:39.110Z,10.70
2023-03-21T04:57:07.958Z,6.38
2023-03-21T04:59:36.551Z,9.95
2023-03-21T05:02:05.870Z,10.32
2023-03-21T05:04:33.650Z,9.02
2023-03-21T05:07:01.379Z,13.80
2023-03-21T05:09:29.139Z,17.13
2023-03-21T05:11:56.959Z,10.57
2023-03-21T05:14:26.395Z,12.75
2023-03-21T05:16:57.465Z,14.27
2023-03-21T05:19:34.677Z,15.02
2023-03-21T05:22:04.594Z,12.90
2023-03-21T05:24:33.650Z,14.77
2023-03-21T05:27:03.153Z,12.10
2023-03-21T05:29:31.554Z,9.43
2023-03-21T05:32:00.210Z,10.10
2023-03-21T05:34:30.810Z,13.38
2023-03-21T05:36:58.556Z,14.20
2023-03-21T05:39:26.262Z,11.25
2023-03-21T05:41:54.030Z,13.48
2023-03-21T05:44:21.746Z,10.02
2023-03-21T05:46:49.502Z,11.55
2023-03-21T05:49:17.331Z,8.57
2023-03-21T05:51:46.375Z,13.27
2023-03-21T05:54:16.555Z,11.82
2023-03-21T05:56:44.291Z,8.75
2023-03-21T05:59:12.081Z,16.10
2023-03-21T06:01:39.819Z,9.80
2023-03-21T06:04:07.631Z,9.93
2023-03-21T06:06:35.579Z,9.77
2023-03-21T06:09:05.536Z,10.48
2023-03-21T06:11:35.257Z,14.18
2023-03-21T06:14:03.086Z,12.50
2023-03-21T06:16:31.015Z,10.45
2023-03-21T06:18:58.769Z,10.77
2023-03-21T06:21:26.961Z,7.53
2023-03-21T06:23:54.748Z,10.73
2023-03-21T06:26:24.034Z,11.63
2023-03-21T06:28:51.914Z,14.27
2023-03-21T06:31:22.320Z,10.98
2023-03-21T06:33:50.147Z,8.90
2023-03-21T06:36:18.161Z,13.95
2023-03-21T06:38:46.849Z,14.55
2023-03-21T06:41:15.589Z,14.90
2023-03-21T06:43:45.278Z,12.48
2023-03-21T06:46:13.330Z,9.85
2023-03-21T06:48:44.418Z,13.38
2023-03-21T06:51:13.394Z,20.75
2023-03-21T06:53:41.936Z,9.57
2023-03-21T06:56:10.802Z,11.98
2023-03-21T06:58:38.762Z,12.18
2023-03-21T07:01:08.777Z,9.55
2023-03-21T07:03:37.792Z,8.75
2023-03-21T07:06:06.988Z,10.50
2023-03-21T07:08:34.725Z,7.82
2023-03-21T07:11:02.466Z,9.70
2023-03-21T07:13:30.521Z,8.60
2023-03-21T07:15:58.234Z,9.38
2023-03-21T07:18:27.394Z,9.07
2023-03-21T07:20:55.188Z,11.30
2023-03-21T07:23:25.708Z,8.52
2023-03-21T07:25:54.606Z,15.27
2023-03-21T07:28:23.074Z,10.80
2023-03-21T07:30:54.840Z,14.15
2023-03-21T07:33:23.334Z,6.15
2023-03-21T07:35:52.674Z,12.70
2023-03-21T07:38:21.145Z,9.82
2023-03-21T07:40:49.736Z,7.55
2023-03-21T07:45:47.150Z,11.70
2023-03-21T07:48:17.331Z,10.93
2023-03-21T07:50:45.098Z,9.52
2023-03-21T07:53:14.186Z,9.48
2023-03-21T07:55:41.971Z,9.65
2023-03-21T07:58:09.738Z,16.90
2023-03-21T08:00:37.522Z,7.22
2023-03-21T08:03:05.999Z,8.73
2023-03-21T08:05:37.123Z,7.70
2023-03-21T08:08:06.257Z,6.63
2023-03-21T08:10:35.900Z,8.43
2023-03-21T08:13:04.089Z,16.73
2023-03-21T08:15:31.904Z,11.05
2023-03-21T08:18:00.772Z,15.77
2023-03-21T08:20:28.698Z,9.10
2023-03-21T08:22:56.450Z,8.55
2023-03-21T08:25:24.244Z,7.97
2023-03-21T08:27:53.384Z,8.70
2023-03-21T08:30:23.717Z,12.32
2023-03-21T08:32:51.659Z,8.70
2023-03-21T08:35:20.630Z,6.63
2023-03-21T08:37:48.762Z,7.63
2023-03-21T08:40:18.414Z,6.90
2023-03-21T08:42:46.974Z,9.02
2023-03-21T08:45:17.920Z,8.20
2023-03-21T08:47:46.420Z,7.63
2023-03-21T08:50:17.359Z,8.18
2023-03-21T08:52:45.634Z,9.20
2023-03-21T08:55:14.431Z,9.98
2023-03-21T08:57:42.478Z,6.85
2023-03-21T09:00:15.156Z,8.77
2023-03-21T09:02:48.885Z,9.48
2023-03-21T09:05:19.223Z,6.78
2023-03-21T09:07:49.953Z,9.57
2023-03-21T09:10:22.905Z,8.20
2023-03-21T09:12:55.390Z,10.23
2023-03-21T09:15:26.374Z,8.82
2023-03-21T09:17:59.289Z,6.53
2023-03-21T09:20:33.363Z,6.53
2023-03-21T09:23:03.254Z,10.32
2023-03-21T09:25:34.078Z,9.57
2023-03-21T09:28:05.923Z,7.65
2023-03-21T09:30:37.216Z,6.40
2023-03-21T09:33:13.680Z,8.45
2023-03-21T09:35:43.553Z,8.45
2023-03-21T09:38:13.205Z,8.40
2023-03-21T09:41:00.049Z,9.57
2023-03-21T09:43:44.441Z,8.93
2023-03-21T09:46:21.267Z,6.22
2023-03-21T09:48:59.006Z,7.57
2023-03-21T09:51:32.975Z,7.28
2023-03-21T09:54:07.791Z,10.45
2023-03-21T09:56:40.773Z,10.48
2023-03-21T09:59:10.005Z,9.50
2023-03-21T10:01:45.565Z,9.48
2023-03-21T10:04:18.834Z,8.90
2023-03-21T10:06:54.119Z,7.43
2023-03-21T10:09:24.560Z,6.43
2023-03-21T10:11:57.916Z,4.88
2023-03-21T10:14:31.306Z,8.05
2023-03-21T10:17:01.493Z,6.55
2023-03-21T10:19:30.784Z,5.32
2023-03-21T10:22:02.176Z,7.28
2023-03-21T10:24:34.336Z,7.50
2023-03-21T10:27:03.542Z,7.30
2023-03-21T10:29:36.857Z,6.03
2023-03-21T10:32:05.041Z,4.63
2023-03-21T10:34:38.815Z,5.55
2023-03-21T10:37:07.376Z,4.22
2023-03-21T10:39:38.002Z,6.57
2023-03-21T10:42:06.608Z,7.63
2023-03-21T10:44:35.862Z,6.40
2023-03-21T10:47:06.736Z,4.35
2023-03-21T10:49:56.394Z,5.50
2023-03-21T10:52:29.855Z,4.75
2023-03-21T10:55:10.082Z,4.40
2023-03-21T10:57:38.640Z,5.47
2023-03-21T11:00:18.139Z,6.07
2023-03-21T11:02:50.116Z,5.72
2023-03-21T11:05:24.853Z,4.80
2023-03-21T11:08:01.473Z,5.45
2023-03-21T11:10:32.985Z,8.30
2023-03-21T11:13:06.257Z,7.40
2023-03-21T11:15:42.118Z,3.90
2023-03-21T11:20:51.389Z,3.92
2023-03-21T11:23:20.859Z,3.83
2023-03-21T11:25:50.783Z,4.53
2023-03-21T11:28:21.544Z,3.45
2023-03-21T11:30:55.451Z,4.20
2023-03-21T11:33:26.928Z,3.60
2023-03-21T11:36:04.492Z,4.43
2023-03-21T11:38:34.468Z,5.63
2023-03-21T11:41:03.471Z,4.43
2023-03-21T11:43:33.010Z,4.38
2023-03-21T11:46:06.239Z,4.65
2023-03-21T11:48:37.961Z,4.22
2023-03-21T11:51:15.698Z,5.70
2023-03-21T11:53:49.916Z,3.80
2023-03-21T11:56:26.470Z,4.78
2023-03-21T11:59:10.943Z,5.18
2023-03-21T12:01:47.166Z,3.92
2023-03-21T12:04:23.783Z,4.47
2023-03-21T12:06:57.264Z,4.47
2023-03-21T12:09:34.963Z,4.50
2023-03-21T12:12:30.003Z,5.10
2023-03-21T12:15:15.093Z,4.57
2023-03-21T12:17:52.023Z,5.35
2023-03-21T12:20:40.262Z,5.47
2023-03-21T12:23:30.313Z,3.47
2023-03-21T12:26:07.001Z,5.47
2023-03-21T12:28:45.091Z,4.18
2023-03-21T12:31:20.064Z,3.45
2023-03-21T12:34:02.978Z,5.00
2023-03-21T12:36:48.745Z,5.97
2023-03-21T12:39:28.913Z,2.42
2023-03-21T12:42:10.570Z,5.38
2023-03-21T12:44:41.830Z,3.17
2023-03-21T12:47:13.226Z,4.10
2023-03-21T12:49:47.946Z,4.20
2023-03-21T12:52:22.430Z,2.90
2023-03-21T12:54:56.020Z,4.18
2023-03-21T12:57:28.611Z,4.65
2023-03-21T13:00:01.646Z,4.80
2023-03-21T13:02:33.038Z,3.67
2023-03-21T13:05:07.680Z,3.22
2023-03-21T13:07:39.009Z,2.92
2023-03-21T13:10:15.792Z,4.28
2023-03-21T13:12:51.998Z,3.15
2023-03-21T13:15:44.812Z,5.00
2023-03-21T13:18:18.324Z,5.05
2023-03-21T13:20:49.645Z,4.22
2023-03-21T13:23:19.430Z,5.15
2023-03-21T13:25:50.477Z,4.68
2023-03-21T13:28:21.944Z,3.78
2023-03-21T13:30:51.660Z,3.00
2023-03-21T13:33:25.849Z,2.50
2023-03-21T13:36:05.331Z,4.90
2023-03-21T13:38:34.853Z,3.05
2023-03-21T13:41:09.325Z,4.15
2023-03-21T13:43:43.858Z,4.95
2023-03-21T13:46:13.704Z,2.33
2023-03-21T13:49:03.550Z,2.88
2023-03-21T13:51:46.405Z,4.35
2023-03-21T13:54:24.214Z,4.03
2023-03-21T13:56:59.947Z,4.05
2023-03-21T13:59:41.005Z,2.40
2023-03-21T14:02:33.612Z,6.28
2023-03-21T14:05:05.727Z,3.63
2023-03-21T14:07:36.493Z,3.17
2023-03-21T14:10:07.693Z,6.78
2023-03-21T14:12:41.866Z,4.60
2023-03-21T14:15:18.703Z,2.45
2023-03-21T14:17:54.868Z,2.90
2023-03-21T14:20:24.809Z,2.67
2023-03-21T14:22:52.834Z,3.97
2023-03-21T14:25:24.356Z,6.93
2023-03-21T14:27:55.992Z,3.00
2023-03-21T14:30:27.054Z,2.83
2023-03-21T14:32:57.341Z,2.72
2023-03-21T14:35:26.377Z,2.40
2023-03-21T14:37:54.064Z,2.78
2023-03-21T14:40:24.587Z,2.25
2023-03-21T14:42:54.645Z,2.85
2023-03-21T14:45:24.311Z,3.20
2023-03-21T14:48:00.472Z,6.03
2023-03-21T14:50:37.552Z,4.85
2023-03-21T14:53:06.296Z,5.22
2023-03-21T14:55:34.682Z,10.30
2023-03-21T14:58:06.276Z,6.45
2023-03-21T15:00:35.534Z,4.07
2023-03-21T15:03:03.854Z,3.40
2023-03-21T15:05:33.669Z,8.48
2023-03-21T15:08:03.716Z,6.18
2023-03-21T15:10:32.656Z,4.95
2023-03-21T15:13:04.131Z,8.00
2023-03-21T15:15:33.879Z,8.25
2023-03-21T15:18:06.057Z,5.35
2023-03-21T15:20:37.522Z,5.60
2023-03-21T15:23:09.414Z,6.28
2023-03-21T15:25:38.416Z,8.48
2023-03-21T15:28:07.973Z,6.30
2023-03-21T15:30:36.072Z,3.95
2023-03-21T15:33:09.445Z,6.70
2023-03-21T15:35:40.046Z,5.18
2023-03-21T15:38:08.017Z,5.25
2023-03-21T15:40:36.295Z,5.70
2023-03-21T15:43:08.288Z,4.57
2023-03-21T15:45:48.022Z,4.07
2023-03-21T15:48:16.206Z,4.93
2023-03-21T15:50:50.933Z,5.75
2023-03-21T15:53:20.333Z,5.30
2023-03-21T15:55:51.838Z,5.25
2023-03-21T15:58:23.928Z,18.55
2023-03-21T16:00:55.413Z,10.57
2023-03-21T16:03:25.838Z,6.70
2023-03-21T16:06:05.231Z,5.85
2023-03-21T16:08:35.677Z,5.93
2023-03-21T16:11:16.035Z,8.48
2023-03-21T16:13:45.094Z,4.93
2023-03-21T16:16:17.968Z,5.75
2023-03-21T16:18:46.256Z,5.95
2023-03-21T16:21:15.014Z,8.23
2023-03-21T16:23:42.777Z,4.50
2023-03-21T16:26:14.130Z,5.97
2023-03-21T16:28:41.860Z,7.85
2023-03-21T16:31:15.407Z,7.05
2023-03-21T16:33:43.534Z,4.10
2023-03-21T16:36:15.312Z,6.18
2023-03-21T16:38:43.070Z,5.50
2023-03-21T16:41:12.226Z,6.97
2023-03-21T16:43:43.805Z,4.53
2023-03-21T16:46:15.131Z,9.27
2023-03-21T16:48:43.556Z,4.18
2023-03-21T16:51:14.670Z,8.27
2023-03-21T16:53:42.443Z,5.72
2023-03-21T16:56:15.906Z,6.72
2023-03-21T16:58:44.475Z,4.35
2023-03-21T17:01:15.636Z,3.03
2023-03-21T17:03:43.735Z,3.63
2023-03-21T17:06:15.372Z,3.45
2023-03-21T17:08:43.232Z,3.60
2023-03-21T17:11:12.184Z,6.90
2023-03-21T17:13:40.147Z,4.55
2023-03-21T17:16:08.553Z,6.00
2023-03-21T17:18:37.650Z,10.38
2023-03-21T17:21:13.205Z,6.80
2023-03-21T17:23:41.162Z,6.30
2023-03-21T17:26:10.795Z,4.30
2023-03-21T17:28:39.238Z,4.90
2023-03-21T17:31:14.263Z,6.72
2023-03-21T17:33:43.694Z,4.70
2023-03-21T17:36:15.217Z,6.82
2023-03-21T17:38:45.581Z,9.73
2023-03-21T17:41:14.139Z,6.57
2023-03-21T17:43:41.925Z,7.20
2023-03-21T17:46:13.942Z,7.50
2023-03-21T17:48:43.524Z,6.05
2023-03-21T17:51:14.663Z,7.30
2023-03-21T17:53:42.667Z,10.00
2023-03-21T17:56:15.356Z,10.48
2023-03-21T17:58:43.097Z,4.45
2023-03-21T18:01:11.384Z,4.15
2023-03-21T18:03:39.417Z,5.38
2023-03-21T18:06:15.968Z,6.95
2023-03-21T18:08:43.881Z,8.23
2023-03-21T18:11:12.725Z,6.35
2023-03-21T18:13:40.863Z,5.57
2023-03-21T18:16:11.087Z,14.38
2023-03-21T18:18:39.062Z,9.77
2023-03-21T18:21:10.667Z,4.97
2023-03-21T18:23:38.445Z,9.98
2023-03-21T18:26:07.944Z,19.17
2023-03-21T18:28:39.605Z,11.82
2023-03-21T18:31:14.569Z,7.03
2023-03-21T18:33:46.100Z,4.47
2023-03-21T18:36:24.117Z,6.50
2023-03-21T18:38:52.481Z,4.18
2023-03-21T18:41:22.638Z,7.85
2023-03-21T18:44:13.567Z,8.65
2023-03-21T18:46:40.274Z,4.90
2023-03-21T18:49:53.694Z,5.65
2023-03-21T18:51:58.699Z,8.55
2023-03-21T18:54:27.613Z,6.45
2023-03-21T18:59:44.470Z,7.75
2023-03-21T19:02:14.927Z,8.18
2023-03-21T19:04:42.899Z,8.00
2023-03-21T19:07:12.064Z,8.35
2023-03-21T19:10:01.626Z,7.45
2023-03-21T19:12:28.342Z,8.00
2023-03-21T19:14:56.667Z,7.03
2023-03-21T19:20:13.925Z,7.05
2023-03-21T19:22:43.819Z,8.55
2023-03-21T19:25:12.901Z,8.52
2023-03-21T19:27:41.152Z,8.70
2023-03-21T19:30:15.334Z,11.02
2023-03-21T19:32:44.305Z,8.77
2023-03-21T19:35:13.122Z,5.63
2023-03-21T19:37:41.527Z,7.13
2023-03-21T19:40:11.748Z,6.95
2023-03-21T19:42:40.491Z,7.47
2023-03-21T19:45:09.713Z,6.72
2023-03-21T19:47:37.499Z,4.95
2023-03-21T19:50:45.575Z,5.93
2023-03-21T19:52:53.879Z,6.95
2023-03-21T19:55:23.446Z,5.07
2023-03-21T19:57:52.228Z,5.78
2023-03-21T20:00:21.037Z,6.57
2023-03-21T20:02:48.815Z,8.38
2023-03-21T20:05:19.630Z,7.53
2023-03-21T20:07:47.584Z,5.38
2023-03-21T20:10:15.593Z,6.10
2023-03-21T20:12:44.739Z,8.02
2023-03-21T20:15:19.195Z,6.38
2023-03-21T20:17:49.270Z,7.53
2023-03-21T20:20:18.318Z,6.30
2023-03-21T20:25:40.790Z,6.32
2023-03-21T20:28:17.144Z,5.18
2023-03-21T20:30:53.978Z,8.20
2023-03-21T20:33:22.065Z,6.75
2023-03-21T20:38:39.198Z,6.30
2023-03-21T20:41:07.732Z,6.53
2023-03-21T20:44:24.370Z,8.40
2023-03-21T20:46:24.893Z,6.22
2023-03-21T20:48:52.724Z,5.80
2023-03-21T20:54:08.681Z,7.63
2023-03-21T20:56:36.565Z,6.22
2023-03-21T20:59:17.313Z,6.55
2023-03-21T21:01:51.976Z,6.00
2023-03-21T21:04:20.324Z,6.93
2023-03-21T21:06:48.342Z,7.47
2023-03-21T21:09:16.485Z,10.57
2023-03-21T21:14:35.413Z,7.22
2023-03-21T21:17:22.426Z,7.03
2023-03-21T21:19:51.366Z,5.60
2023-03-21T21:22:19.385Z,7.88
2023-03-21T21:24:47.171Z,8.07
2023-03-21T21:27:14.962Z,9.02
2023-03-21T21:29:47.450Z,12.30
2023-03-21T21:32:16.569Z,9.90
2023-03-21T21:34:44.317Z,10.35
2023-03-21T21:37:12.168Z,8.75
2023-03-21T21:39:41.879Z,6.38
2023-03-21T21:42:09.648Z,9.95
2023-03-21T21:44:39.598Z,9.77
2023-03-21T21:47:09.067Z,12.73
2023-03-21T21:49:37.706Z,11.45
2023-03-21T21:52:05.751Z,12.68
2023-03-21T21:54:34.881Z,13.95
2023-03-21T21:57:02.852Z,18.33
2023-03-21T21:59:30.939Z,19.88
2023-03-21T22:01:58.861Z,12.63
2023-03-21T22:04:28.506Z,8.88
2023-03-21T22:06:56.379Z,9.55
2023-03-21T22:09:24.292Z,10.35
2023-03-21T22:11:52.091Z,8.95
2023-03-21T22:14:19.881Z,7.65
2023-03-21T22:16:47.782Z,8.48
2023-03-21T22:19:15.562Z,10.10
2023-03-21T22:21:44.621Z,11.25
2023-03-21T22:24:12.487Z,8.65
2023-03-21T22:26:40.550Z,8.63
2023-03-21T22:29:10.419Z,7.18
2023-03-21T22:31:41.726Z,8.68
2023-03-21T22:34:09.613Z,6.68
2023-03-21T22:36:37.300Z,8.95
2023-03-21T22:39:06.583Z,8.93
2023-03-21T22:41:34.323Z,7.03
2023-03-21T22:44:02.083Z,8.50
2023-03-21T22:46:29.932Z,8.15
2023-03-21T22:48:57.733Z,6.45
2023-03-21T22:51:25.504Z,13.13
2023-03-21T22:53:53.257Z,7.20
2023-03-21T22:56:22.285Z,10.10
2023-03-21T22:58:50.014Z,7.07
2023-03-21T23:01:17.813Z,5.18
2023-03-21T23:03:45.620Z,9.05
2023-03-21T23:06:13.397Z,5.00
2023-03-21T23:08:41.124Z,6.00
2023-03-21T23:11:10.526Z,9.38
2023-03-21T23:13:41.286Z,7.40
2023-03-21T23:16:09.868Z,6.80
2023-03-21T23:18:38.496Z,8.88
2023-03-21T23:21:12.942Z,7.55
2023-03-21T23:23:43.581Z,9.25
2023-03-21T23:26:12.168Z,8.45
2023-03-21T23:28:41.872Z,10.77
2023-03-21T23:31:11.579Z,7.68
2023-03-21T23:33:40.113Z,7.57
2023-03-21T23:36:09.337Z,6.88
2023-03-21T23:38:37.223Z,5.40
2023-03-21T23:41:07.764Z,6.05
2023-03-21T23:43:35.698Z,7.10
2023-03-21T23:46:05.591Z,11.15
2023-03-21T23:48:33.514Z,6.63
2023-03-21T23:51:01.973Z,5.50
2023-03-21T23:53:29.696Z,8.48
2023-03-21T23:55:58.521Z,8.73
2023-03-21T23:58:28.481Z,6.32
